sensor_id;sensor_type;location;lat;lon;timestamp;pressure;altitude;pressure_sealevel;temperature;humidity
48244;BME280;34053;51.088;6.572;2023-03-14T00:00:30;98548.91;;;12.23;67.66
48244;BME280;34053;51.088;6.572;2023-03-14T00:03:01;98542.66;;;12.24;67.66
48244;BME280;34053;51.088;6.572;2023-03-14T00:05:31;98533.13;;;12.10;67.30
48244;BME280;34053;51.088;6.572;2023-03-14T00:08:02;98533.44;;;12.05;67.98
48244;BME280;34053;51.088;6.572;2023-03-14T00:10:32;98550.84;;;11.93;68.02
48244;BME280;34053;51.088;6.572;2023-03-14T00:13:03;98554.78;;;12.01;67.59
48244;BME280;34053;51.088;6.572;2023-03-14T00:15:34;98553.19;;;11.98;67.66
48244;BME280;34053;51.088;6.572;2023-03-14T00:18:04;98565.28;;;12.01;67.30
48244;BME280;34053;51.088;6.572;2023-03-14T00:20:34;98569.00;;;11.84;69.08
48244;BME280;34053;51.088;6.572;2023-03-14T00:23:05;98592.13;;;11.78;69.02
48244;BME280;34053;51.088;6.572;2023-03-14T00:25:35;98615.88;;;11.77;69.36
48244;BME280;34053;51.088;6.572;2023-03-14T00:28:06;98667.16;;;11.82;72.38
48244;BME280;34053;51.088;6.572;2023-03-14T00:30:37;98676.25;;;11.49;73.07
48244;BME280;34053;51.088;6.572;2023-03-14T00:33:07;98680.75;;;11.06;75.25
48244;BME280;34053;51.088;6.572;2023-03-14T00:35:38;98669.22;;;10.94;74.41
48244;BME280;34053;51.088;6.572;2023-03-14T00:38:08;98679.91;;;10.62;75.93
48244;BME280;34053;51.088;6.572;2023-03-14T00:40:39;98665.84;;;10.48;77.10
48244;BME280;34053;51.088;6.572;2023-03-14T00:43:09;98650.94;;;10.63;76.92
48244;BME280;34053;51.088;6.572;2023-03-14T00:45:40;98645.41;;;10.53;78.08
48244;BME280;34053;51.088;6.572;2023-03-14T00:48:10;98639.66;;;10.32;78.42
48244;BME280;34053;51.088;6.572;2023-03-14T00:50:41;98631.44;;;10.38;78.46
48244;BME280;34053;51.088;6.572;2023-03-14T00:53:11;98631.69;;;10.34;78.20
48244;BME280;34053;51.088;6.572;2023-03-14T00:55:43;98635.16;;;10.34;77.40
48244;BME280;34053;51.088;6.572;2023-03-14T00:58:15;98630.38;;;10.27;78.10
48244;BME280;34053;51.088;6.572;2023-03-14T01:00:46;98629.81;;;10.21;77.80
48244;BME280;34053;51.088;6.572;2023-03-14T01:03:17;98628.13;;;10.35;77.66
48244;BME280;34053;51.088;6.572;2023-03-14T01:05:47;98618.28;;;10.10;79.53
48244;BME280;34053;51.088;6.572;2023-03-14T01:08:18;98610.34;;;10.26;78.63
48244;BME280;34053;51.088;6.572;2023-03-14T01:10:48;98615.88;;;10.35;78.75
48244;BME280;34053;51.088;6.572;2023-03-14T01:13:19;98624.34;;;10.41;78.19
48244;BME280;34053;51.088;6.572;2023-03-14T01:15:49;98623.25;;;10.45;77.89
48244;BME280;34053;51.088;6.572;2023-03-14T01:18:20;98621.97;;;10.36;78.02
48244;BME280;34053;51.088;6.572;2023-03-14T01:20:50;98605.59;;;10.47;77.77
48244;BME280;34053;51.088;6.572;2023-03-14T01:23:20;98602.06;;;10.48;77.51
48244;BME280;34053;51.088;6.572;2023-03-14T01:25:51;98599.72;;;10.43;78.23
48244;BME280;34053;51.088;6.572;2023-03-14T01:28:21;98593.47;;;10.60;77.19
48244;BME280;34053;51.088;6.572;2023-03-14T01:30:52;98580.72;;;10.68;76.67
48244;BME280;34053;51.088;6.572;2023-03-14T01:33:22;98569.94;;;10.59;77.19
48244;BME280;34053;51.088;6.572;2023-03-14T01:35:53;98568.91;;;10.61;76.40
48244;BME280;34053;51.088;6.572;2023-03-14T01:38:23;98584.44;;;10.64;76.49
48244;BME280;34053;51.088;6.572;2023-03-14T01:40:54;98579.53;;;10.29;77.46
48244;BME280;34053;51.088;6.572;2023-03-14T01:43:25;98574.53;;;10.41;77.14
48244;BME280;34053;51.088;6.572;2023-03-14T01:48:36;98575.63;;;10.36;77.21
48244;BME280;34053;51.088;6.572;2023-03-14T01:51:30;98570.16;;;10.41;76.12
48244;BME280;34053;51.088;6.572;2023-03-14T01:59:52;98558.50;;;10.60;75.74
48244;BME280;34053;51.088;6.572;2023-03-14T02:02:25;98549.25;;;10.68;75.56
48244;BME280;34053;51.088;6.572;2023-03-14T02:04:57;98552.59;;;10.70;75.41
48244;BME280;34053;51.088;6.572;2023-03-14T02:07:36;98558.50;;;10.60;75.92
48244;BME280;34053;51.088;6.572;2023-03-14T02:10:09;98560.69;;;10.53;76.18
48244;BME280;34053;51.088;6.572;2023-03-14T02:12:40;98552.22;;;10.62;75.58
48244;BME280;34053;51.088;6.572;2023-03-14T02:15:11;98548.84;;;10.75;75.35
48244;BME280;34053;51.088;6.572;2023-03-14T02:17:43;98544.38;;;10.77;75.06
48244;BME280;34053;51.088;6.572;2023-03-14T02:23:03;98559.59;;;10.84;74.77
48244;BME280;34053;51.088;6.572;2023-03-14T02:25:45;98559.41;;;10.88;74.54
48244;BME280;34053;51.088;6.572;2023-03-14T02:28:16;98569.84;;;10.60;75.47
48244;BME280;34053;51.088;6.572;2023-03-14T02:30:47;98571.69;;;10.73;75.44
48244;BME280;34053;51.088;6.572;2023-03-14T02:33:19;98560.56;;;10.69;75.65
48244;BME280;34053;51.088;6.572;2023-03-14T02:36:04;98554.66;;;10.80;75.08
48244;BME280;34053;51.088;6.572;2023-03-14T02:41:19;98551.13;;;10.66;75.21
48244;BME280;34053;51.088;6.572;2023-03-14T02:43:49;98546.03;;;10.63;75.99
48244;BME280;34053;51.088;6.572;2023-03-14T02:46:21;98548.31;;;10.69;76.20
48244;BME280;34053;51.088;6.572;2023-03-14T02:49:10;98547.72;;;10.64;76.05
48244;BME280;34053;51.088;6.572;2023-03-14T02:51:43;98537.53;;;10.74;75.71
48244;BME280;34053;51.088;6.572;2023-03-14T02:54:15;98537.81;;;10.69;75.92
48244;BME280;34053;51.088;6.572;2023-03-14T02:56:46;98531.44;;;10.74;75.54
48244;BME280;34053;51.088;6.572;2023-03-14T02:59:16;98528.06;;;10.71;75.84
48244;BME280;34053;51.088;6.572;2023-03-14T03:01:47;98533.13;;;10.75;75.64
48244;BME280;34053;51.088;6.572;2023-03-14T03:04:17;98530.66;;;10.71;75.62
48244;BME280;34053;51.088;6.572;2023-03-14T03:06:48;98543.06;;;10.55;75.86
48244;BME280;34053;51.088;6.572;2023-03-14T03:09:18;98545.59;;;10.57;76.53
48244;BME280;34053;51.088;6.572;2023-03-14T03:11:48;98546.44;;;10.57;77.57
48244;BME280;34053;51.088;6.572;2023-03-14T03:14:19;98542.56;;;10.34;79.77
48244;BME280;34053;51.088;6.572;2023-03-14T03:16:49;98548.47;;;10.08;82.12
48244;BME280;34053;51.088;6.572;2023-03-14T03:19:20;98545.94;;;10.21;81.57
48244;BME280;34053;51.088;6.572;2023-03-14T03:21:51;98548.63;;;10.05;82.69
48244;BME280;34053;51.088;6.572;2023-03-14T03:24:21;98540.59;;;9.94;85.07
48244;BME280;34053;51.088;6.572;2023-03-14T03:26:52;98539.78;;;10.08;84.49
48244;BME280;34053;51.088;6.572;2023-03-14T03:29:22;98536.28;;;10.22;83.66
48244;BME280;34053;51.088;6.572;2023-03-14T03:31:53;98536.94;;;10.11;84.70
48244;BME280;34053;51.088;6.572;2023-03-14T03:34:23;98533.13;;;10.17;84.94
48244;BME280;34053;51.088;6.572;2023-03-14T03:36:57;98527.22;;;10.13;84.73
48244;BME280;34053;51.088;6.572;2023-03-14T03:39:28;98520.34;;;10.41;82.82
48244;BME280;34053;51.088;6.572;2023-03-14T03:41:58;98512.78;;;10.35;83.35
48244;BME280;34053;51.088;6.572;2023-03-14T03:44:29;98498.41;;;10.57;80.95
48244;BME280;34053;51.088;6.572;2023-03-14T03:46:59;98500.63;;;10.63;79.91
48244;BME280;34053;51.088;6.572;2023-03-14T03:49:31;98504.66;;;10.68;80.53
48244;BME280;34053;51.088;6.572;2023-03-14T03:52:02;98493.41;;;10.66;81.28
48244;BME280;34053;51.088;6.572;2023-03-14T03:54:32;98496.63;;;10.57;81.62
48244;BME280;34053;51.088;6.572;2023-03-14T03:57:03;98488.50;;;10.47;82.42
48244;BME280;34053;51.088;6.572;2023-03-14T03:59:33;98480.53;;;10.49;82.01
48244;BME280;34053;51.088;6.572;2023-03-14T04:02:04;98492.16;;;10.45;82.21
48244;BME280;34053;51.088;6.572;2023-03-14T04:04:34;98480.53;;;10.49;81.52
48244;BME280;34053;51.088;6.572;2023-03-14T04:07:05;98476.78;;;10.53;81.01
48244;BME280;34053;51.088;6.572;2023-03-14T04:09:37;98474.34;;;10.50;81.76
48244;BME280;34053;51.088;6.572;2023-03-14T04:12:08;98475.94;;;10.23;82.54
48244;BME280;34053;51.088;6.572;2023-03-14T04:14:38;98476.97;;;10.35;82.54
48244;BME280;34053;51.088;6.572;2023-03-14T04:17:11;98479.75;;;10.32;81.71
48244;BME280;34053;51.088;6.572;2023-03-14T04:19:41;98473.47;;;10.35;81.67
48244;BME280;34053;51.088;6.572;2023-03-14T04:22:12;98477.69;;;10.23;82.35
48244;BME280;34053;51.088;6.572;2023-03-14T04:24:42;98476.66;;;10.26;82.32
48244;BME280;34053;51.088;6.572;2023-03-14T04:27:13;98464.13;;;10.31;81.74
48244;BME280;34053;51.088;6.572;2023-03-14T04:29:45;98464.31;;;10.28;82.02
48244;BME280;34053;51.088;6.572;2023-03-14T04:32:15;98456.16;;;10.47;81.00
48244;BME280;34053;51.088;6.572;2023-03-14T04:34:45;98450.81;;;10.34;81.05
48244;BME280;34053;51.088;6.572;2023-03-14T04:37:16;98454.59;;;10.44;80.49
48244;BME280;34053;51.088;6.572;2023-03-14T04:39:46;98460.22;;;10.23;81.13
48244;BME280;34053;51.088;6.572;2023-03-14T04:42:17;98450.00;;;10.33;80.84
48244;BME280;34053;51.088;6.572;2023-03-14T04:44:47;98443.63;;;10.23;80.88
48244;BME280;34053;51.088;6.572;2023-03-14T04:47:19;98436.13;;;10.31;80.50
48244;BME280;34053;51.088;6.572;2023-03-14T04:49:49;98445.13;;;10.27;80.58
48244;BME280;34053;51.088;6.572;2023-03-14T04:52:20;98426.22;;;10.22;80.42
48244;BME280;34053;51.088;6.572;2023-03-14T04:54:50;98433.72;;;10.14;80.45
48244;BME280;34053;51.088;6.572;2023-03-14T04:57:21;98426.97;;;10.38;79.74
48244;BME280;34053;51.088;6.572;2023-03-14T04:59:51;98427.50;;;10.29;79.83
48244;BME280;34053;51.088;6.572;2023-03-14T05:02:22;98413.03;;;10.23;80.23
48244;BME280;34053;51.088;6.572;2023-03-14T05:04:52;98427.47;;;10.16;79.74
48244;BME280;34053;51.088;6.572;2023-03-14T05:07:23;98420.34;;;10.04;79.82
48244;BME280;34053;51.088;6.572;2023-03-14T05:09:53;98424.16;;;10.13;79.49
48244;BME280;34053;51.088;6.572;2023-03-14T05:12:24;98416.50;;;10.10;79.27
48244;BME280;34053;51.088;6.572;2023-03-14T05:14:54;98417.81;;;10.17;78.71
48244;BME280;34053;51.088;6.572;2023-03-14T05:17:24;98414.91;;;10.21;78.97
48244;BME280;34053;51.088;6.572;2023-03-14T05:19:55;98419.59;;;10.02;79.44
48244;BME280;34053;51.088;6.572;2023-03-14T05:22:25;98422.50;;;10.26;78.44
48244;BME280;34053;51.088;6.572;2023-03-14T05:24:56;98408.75;;;10.08;78.97
48244;BME280;34053;51.088;6.572;2023-03-14T05:27:28;98413.69;;;10.13;79.13
48244;BME280;34053;51.088;6.572;2023-03-14T05:29:59;98412.75;;;10.14;79.44
48244;BME280;34053;51.088;6.572;2023-03-14T05:32:29;98414.44;;;10.15;79.39
48244;BME280;34053;51.088;6.572;2023-03-14T05:35:00;98412.31;;;10.07;80.94
48244;BME280;34053;51.088;6.572;2023-03-14T05:37:30;98411.28;;;10.10;80.46
48244;BME280;34053;51.088;6.572;2023-03-14T05:40:01;98406.44;;;10.03;80.92
48244;BME280;34053;51.088;6.572;2023-03-14T05:42:32;98400.03;;;10.07;81.26
48244;BME280;34053;51.088;6.572;2023-03-14T05:45:03;98406.31;;;10.05;81.59
48244;BME280;34053;51.088;6.572;2023-03-14T05:47:34;98393.13;;;9.92;81.72
48244;BME280;34053;51.088;6.572;2023-03-14T05:50:04;98406.63;;;9.86;82.18
48244;BME280;34053;51.088;6.572;2023-03-14T05:52:35;98409.50;;;9.96;81.45
48244;BME280;34053;51.088;6.572;2023-03-14T05:55:06;98408.97;;;9.90;81.93
48244;BME280;34053;51.088;6.572;2023-03-14T05:57:36;98413.25;;;9.91;82.41
48244;BME280;34053;51.088;6.572;2023-03-14T06:00:07;98402.22;;;9.86;81.79
48244;BME280;34053;51.088;6.572;2023-03-14T06:02:38;98406.97;;;9.80;82.10
48244;BME280;34053;51.088;6.572;2023-03-14T06:05:09;98394.72;;;9.80;81.76
48244;BME280;34053;51.088;6.572;2023-03-14T06:07:39;98390.31;;;9.81;81.99
48244;BME280;34053;51.088;6.572;2023-03-14T06:10:10;98395.56;;;9.81;82.25
48244;BME280;34053;51.088;6.572;2023-03-14T06:12:43;98395.38;;;9.98;81.56
48244;BME280;34053;51.088;6.572;2023-03-14T06:15:14;98391.44;;;10.05;80.31
48244;BME280;34053;51.088;6.572;2023-03-14T06:17:48;98397.16;;;9.98;80.81
48244;BME280;34053;51.088;6.572;2023-03-14T06:20:19;98395.66;;;9.93;80.74
48244;BME280;34053;51.088;6.572;2023-03-14T06:22:49;98391.44;;;9.91;80.92
48244;BME280;34053;51.088;6.572;2023-03-14T06:25:20;98410.16;;;9.85;81.29
48244;BME280;34053;51.088;6.572;2023-03-14T06:27:50;98398.56;;;9.89;81.33
48244;BME280;34053;51.088;6.572;2023-03-14T06:30:21;98402.47;;;9.96;80.80
48244;BME280;34053;51.088;6.572;2023-03-14T06:32:51;98396.13;;;10.00;80.81
48244;BME280;34053;51.088;6.572;2023-03-14T06:35:22;98400.59;;;9.98;81.23
48244;BME280;34053;51.088;6.572;2023-03-14T06:37:53;98398.75;;;10.00;81.27
48244;BME280;34053;51.088;6.572;2023-03-14T06:40:24;98409.97;;;10.02;81.28
48244;BME280;34053;51.088;6.572;2023-03-14T06:42:54;98400.97;;;10.06;81.40
48244;BME280;34053;51.088;6.572;2023-03-14T06:45:24;98409.69;;;10.07;81.55
48244;BME280;34053;51.088;6.572;2023-03-14T06:47:55;98400.31;;;10.17;80.89
48244;BME280;34053;51.088;6.572;2023-03-14T06:50:25;98407.50;;;10.14;81.16
48244;BME280;34053;51.088;6.572;2023-03-14T06:52:56;98407.16;;;10.05;82.23
48244;BME280;34053;51.088;6.572;2023-03-14T06:55:26;98411.75;;;10.16;81.74
48244;BME280;34053;51.088;6.572;2023-03-14T06:57:57;98406.69;;;10.13;82.23
48244;BME280;34053;51.088;6.572;2023-03-14T07:00:27;98408.16;;;10.17;81.89
48244;BME280;34053;51.088;6.572;2023-03-14T07:02:58;98418.75;;;10.16;82.10
48244;BME280;34053;51.088;6.572;2023-03-14T07:05:29;98417.81;;;10.17;82.44
48244;BME280;34053;51.088;6.572;2023-03-14T07:07:59;98420.72;;;10.12;82.95
48244;BME280;34053;51.088;6.572;2023-03-14T07:10:30;98413.78;;;10.11;82.73
48244;BME280;34053;51.088;6.572;2023-03-14T07:13:00;98426.59;;;10.16;83.22
48244;BME280;34053;51.088;6.572;2023-03-14T07:15:31;98423.44;;;10.11;83.47
48244;BME280;34053;51.088;6.572;2023-03-14T07:18:01;98418.56;;;10.19;83.07
48244;BME280;34053;51.088;6.572;2023-03-14T07:20:32;98432.50;;;10.19;83.14
48244;BME280;34053;51.088;6.572;2023-03-14T07:23:02;98431.19;;;10.27;83.35
48244;BME280;34053;51.088;6.572;2023-03-14T07:25:33;98429.59;;;10.24;83.46
48244;BME280;34053;51.088;6.572;2023-03-14T07:28:03;98433.34;;;10.20;83.46
48244;BME280;34053;51.088;6.572;2023-03-14T07:30:34;98443.25;;;10.15;83.58
48244;BME280;34053;51.088;6.572;2023-03-14T07:33:05;98434.56;;;10.14;84.46
48244;BME280;34053;51.088;6.572;2023-03-14T07:35:37;98435.22;;;10.18;84.94
48244;BME280;34053;51.088;6.572;2023-03-14T07:38:07;98436.81;;;10.20;84.74
48244;BME280;34053;51.088;6.572;2023-03-14T07:40:38;98438.03;;;10.15;85.02
48244;BME280;34053;51.088;6.572;2023-03-14T07:43:08;98444.38;;;10.25;84.14
48244;BME280;34053;51.088;6.572;2023-03-14T07:45:38;98442.31;;;10.30;83.35
48244;BME280;34053;51.088;6.572;2023-03-14T07:48:09;98447.84;;;10.26;83.95
48244;BME280;34053;51.088;6.572;2023-03-14T07:50:40;98454.13;;;10.23;84.76
48244;BME280;34053;51.088;6.572;2023-03-14T07:53:10;98462.56;;;10.28;84.64
48244;BME280;34053;51.088;6.572;2023-03-14T07:55:41;98451.69;;;10.20;85.04
48244;BME280;34053;51.088;6.572;2023-03-14T07:58:12;98458.25;;;10.27;84.82
48244;BME280;34053;51.088;6.572;2023-03-14T08:00:45;98458.97;;;10.29;84.68
48244;BME280;34053;51.088;6.572;2023-03-14T08:03:15;98463.50;;;10.27;84.55
48244;BME280;34053;51.088;6.572;2023-03-14T08:05:48;98459.53;;;10.34;84.01
48244;BME280;34053;51.088;6.572;2023-03-14T08:08:19;98460.13;;;10.39;83.89
48244;BME280;34053;51.088;6.572;2023-03-14T08:10:49;98464.25;;;10.44;84.48
48244;BME280;34053;51.088;6.572;2023-03-14T08:13:20;98462.66;;;10.41;84.28
48244;BME280;34053;51.088;6.572;2023-03-14T08:15:51;98466.47;;;10.35;84.60
48244;BME280;34053;51.088;6.572;2023-03-14T08:18:21;98473.41;;;10.36;84.78
48244;BME280;34053;51.088;6.572;2023-03-14T08:20:52;98478.66;;;10.36;84.71
48244;BME280;34053;51.088;6.572;2023-03-14T08:23:22;98465.19;;;10.43;84.43
48244;BME280;34053;51.088;6.572;2023-03-14T08:25:53;98475.66;;;10.43;84.16
48244;BME280;34053;51.088;6.572;2023-03-14T08:28:23;98473.88;;;10.43;83.66
48244;BME280;34053;51.088;6.572;2023-03-14T08:30:54;98476.22;;;10.48;84.06
48244;BME280;34053;51.088;6.572;2023-03-14T08:33:27;98480.53;;;10.49;83.50
48244;BME280;34053;51.088;6.572;2023-03-14T08:36:01;98484.81;;;10.50;84.08
48244;BME280;34053;51.088;6.572;2023-03-14T08:38:32;98490.81;;;10.52;85.30
48244;BME280;34053;51.088;6.572;2023-03-14T08:41:02;98496.25;;;10.34;87.69
48244;BME280;34053;51.088;6.572;2023-03-14T08:43:34;98498.31;;;10.44;87.52
48244;BME280;34053;51.088;6.572;2023-03-14T08:46:04;98499.69;;;10.35;88.53
48244;BME280;34053;51.088;6.572;2023-03-14T08:48:35;98513.72;;;10.34;88.85
48244;BME280;34053;51.088;6.572;2023-03-14T08:51:10;98509.72;;;10.14;89.55
48244;BME280;34053;51.088;6.572;2023-03-14T08:53:42;98527.31;;;10.26;89.18
48244;BME280;34053;51.088;6.572;2023-03-14T08:56:13;98528.97;;;10.13;90.34
48244;BME280;34053;51.088;6.572;2023-03-14T08:58:43;98525.34;;;10.15;90.88
48244;BME280;34053;51.088;6.572;2023-03-14T09:01:14;98537.59;;;10.15;91.84
48244;BME280;34053;51.088;6.572;2023-03-14T09:03:44;98534.59;;;10.21;90.28
48244;BME280;34053;51.088;6.572;2023-03-14T09:06:16;98572.09;;;10.37;89.13
48244;BME280;34053;51.088;6.572;2023-03-14T09:08:48;98592.06;;;10.40;87.41
48244;BME280;34053;51.088;6.572;2023-03-14T09:11:18;98603.50;;;10.23;87.91
48244;BME280;34053;51.088;6.572;2023-03-14T09:13:49;98599.47;;;10.17;85.98
48244;BME280;34053;51.088;6.572;2023-03-14T09:16:19;98622.75;;;10.07;83.30
48244;BME280;34053;51.088;6.572;2023-03-14T09:18:50;98641.97;;;10.08;82.75
48244;BME280;34053;51.088;6.572;2023-03-14T09:21:23;98655.97;;;9.76;82.10
48244;BME280;34053;51.088;6.572;2023-03-14T09:23:53;98672.97;;;9.37;80.03
48244;BME280;34053;51.088;6.572;2023-03-14T09:26:24;98668.66;;;9.20;80.99
48244;BME280;34053;51.088;6.572;2023-03-14T09:28:54;98689.25;;;9.10;80.99
48244;BME280;34053;51.088;6.572;2023-03-14T09:31:25;98701.84;;;9.68;80.57
48244;BME280;34053;51.088;6.572;2023-03-14T09:33:55;98710.69;;;9.33;79.78
48244;BME280;34053;51.088;6.572;2023-03-14T09:36:26;98719.72;;;9.11;82.05
48244;BME280;34053;51.088;6.572;2023-03-14T09:38:56;98716.28;;;9.27;81.37
48244;BME280;34053;51.088;6.572;2023-03-14T09:41:31;98734.09;;;8.87;81.62
48244;BME280;34053;51.088;6.572;2023-03-14T09:46:38;98759.59;;;8.99;82.96
48244;BME280;34053;51.088;6.572;2023-03-14T09:49:19;98764.41;;;9.40;81.45
48244;BME280;34053;51.088;6.572;2023-03-14T09:51:54;98781.22;;;9.52;81.84
48244;BME280;34053;51.088;6.572;2023-03-14T09:54:36;98800.91;;;9.43;81.57
48244;BME280;34053;51.088;6.572;2023-03-14T09:57:13;98808.22;;;9.37;81.21
48244;BME280;34053;51.088;6.572;2023-03-14T09:59:45;98815.19;;;9.20;80.58
48244;BME280;34053;51.088;6.572;2023-03-14T10:02:27;98835.75;;;9.10;80.00
48244;BME280;34053;51.088;6.572;2023-03-14T10:04:59;98841.66;;;9.32;80.64
48244;BME280;34053;51.088;6.572;2023-03-14T10:07:31;98850.19;;;9.35;81.40
48244;BME280;34053;51.088;6.572;2023-03-14T10:10:10;98867.75;;;8.98;81.27
48244;BME280;34053;51.088;6.572;2023-03-14T10:12:41;98871.84;;;9.04;81.29
48244;BME280;34053;51.088;6.572;2023-03-14T10:15:15;98880.91;;;8.96;80.64
48244;BME280;34053;51.088;6.572;2023-03-14T10:17:53;98894.25;;;9.09;80.67
48244;BME280;34053;51.088;6.572;2023-03-14T10:23:22;98919.41;;;9.12;80.29
48244;BME280;34053;51.088;6.572;2023-03-14T10:26:12;98921.94;;;9.31;79.68
48244;BME280;34053;51.088;6.572;2023-03-14T10:28:49;98931.94;;;9.23;79.98
48244;BME280;34053;51.088;6.572;2023-03-14T10:31:24;98931.56;;;9.13;81.01
48244;BME280;34053;51.088;6.572;2023-03-14T10:34:01;98940.19;;;9.15;81.58
48244;BME280;34053;51.088;6.572;2023-03-14T10:36:33;98949.97;;;9.11;82.06
48244;BME280;34053;51.088;6.572;2023-03-14T10:41:50;98969.50;;;9.22;82.03
48244;BME280;34053;51.088;6.572;2023-03-14T10:44:24;98980.97;;;9.19;82.39
48244;BME280;34053;51.088;6.572;2023-03-14T10:47:01;98989.84;;;9.34;82.46
48244;BME280;34053;51.088;6.572;2023-03-14T10:49:35;99001.22;;;9.33;82.07
48244;BME280;34053;51.088;6.572;2023-03-14T10:54:54;99020.00;;;9.41;81.29
48244;BME280;34053;51.088;6.572;2023-03-14T10:57:27;99032.78;;;9.48;80.79
48244;BME280;34053;51.088;6.572;2023-03-14T10:59:57;99029.88;;;9.36;80.28
48244;BME280;34053;51.088;6.572;2023-03-14T11:05:21;99028.47;;;9.47;80.40
48244;BME280;34053;51.088;6.572;2023-03-14T11:08:06;99049.75;;;9.58;79.12
48244;BME280;34053;51.088;6.572;2023-03-14T11:10:39;99053.13;;;9.42;80.64
48244;BME280;34053;51.088;6.572;2023-03-14T11:13:53;99115.91;;;8.68;79.18
48244;BME280;34053;51.088;6.572;2023-03-14T11:16:47;99123.66;;;8.09;79.17
48244;BME280;34053;51.088;6.572;2023-03-14T11:26:01;99135.06;;;8.06;79.66
48244;BME280;34053;51.088;6.572;2023-03-14T11:28:41;99155.38;;;7.99;80.61
48244;BME280;34053;51.088;6.572;2023-03-14T11:31:26;99150.72;;;7.85;81.00
48244;BME280;34053;51.088;6.572;2023-03-14T11:34:35;99163.59;;;8.11;81.16
48244;BME280;34053;51.088;6.572;2023-03-14T11:37:29;99169.06;;;8.27;80.27
48244;BME280;34053;51.088;6.572;2023-03-14T11:43:05;99189.09;;;8.06;79.99
48244;BME280;34053;51.088;6.572;2023-03-14T11:45:38;99199.19;;;7.70;80.31
48244;BME280;34053;51.088;6.572;2023-03-14T11:50:59;99213.28;;;7.88;81.11
48244;BME280;34053;51.088;6.572;2023-03-14T11:53:49;99221.25;;;8.06;79.10
48244;BME280;34053;51.088;6.572;2023-03-14T11:56:37;99228.69;;;8.17;79.28
48244;BME280;34053;51.088;6.572;2023-03-14T11:59:21;99231.13;;;8.22;77.69
48244;BME280;34053;51.088;6.572;2023-03-14T12:05:07;99255.66;;;8.17;75.91
48244;BME280;34053;51.088;6.572;2023-03-14T12:10:24;99276.81;;;8.11;73.73
48244;BME280;34053;51.088;6.572;2023-03-14T12:12:54;99284.75;;;8.08;74.66
48244;BME280;34053;51.088;6.572;2023-03-14T12:15:25;99299.69;;;8.04;74.45
48244;BME280;34053;51.088;6.572;2023-03-14T12:17:56;99308.66;;;7.75;75.21
48244;BME280;34053;51.088;6.572;2023-03-14T12:20:26;99327.25;;;8.13;74.66
48244;BME280;34053;51.088;6.572;2023-03-14T12:23:03;99333.88;;;7.76;73.63
48244;BME280;34053;51.088;6.572;2023-03-14T12:25:34;99340.91;;;7.74;72.18
48244;BME280;34053;51.088;6.572;2023-03-14T12:28:20;99344.06;;;7.82;72.43
48244;BME280;34053;51.088;6.572;2023-03-14T12:30:50;99356.34;;;7.80;73.80
48244;BME280;34053;51.088;6.572;2023-03-14T12:33:27;99363.56;;;7.50;73.82
48244;BME280;34053;51.088;6.572;2023-03-14T12:36:00;99375.19;;;7.88;72.46
48244;BME280;34053;51.088;6.572;2023-03-14T12:41:29;99378.13;;;8.03;71.46
48244;BME280;34053;51.088;6.572;2023-03-14T12:47:47;99394.22;;;8.14;71.07
48244;BME280;34053;51.088;6.572;2023-03-14T12:49:52;99402.38;;;8.07;71.44
48244;BME280;34053;51.088;6.572;2023-03-14T12:52:39;99406.88;;;8.03;71.46
48244;BME280;34053;51.088;6.572;2023-03-14T12:55:33;99414.78;;;8.24;71.12
48244;BME280;34053;51.088;6.572;2023-03-14T13:01:16;99428.97;;;8.40;70.42
48244;BME280;34053;51.088;6.572;2023-03-14T13:03:54;99436.59;;;8.46;69.88
48244;BME280;34053;51.088;6.572;2023-03-14T13:06:46;99469.28;;;8.34;69.92
48244;BME280;34053;51.088;6.572;2023-03-14T13:12:01;99512.09;;;7.81;71.58
48244;BME280;34053;51.088;6.572;2023-03-14T13:14:33;99516.69;;;7.49;69.92
48244;BME280;34053;51.088;6.572;2023-03-14T13:17:03;99529.56;;;7.54;70.54
48244;BME280;34053;51.088;6.572;2023-03-14T13:19:34;99534.78;;;7.54;71.17
48244;BME280;34053;51.088;6.572;2023-03-14T13:22:13;99539.47;;;7.71;71.72
48244;BME280;34053;51.088;6.572;2023-03-14T13:24:45;99545.91;;;7.61;72.44
48244;BME280;34053;51.088;6.572;2023-03-14T13:27:18;99546.06;;;7.81;71.75
48244;BME280;34053;51.088;6.572;2023-03-14T13:29:51;99546.78;;;7.60;71.86
48244;BME280;34053;51.088;6.572;2023-03-14T13:32:27;99545.91;;;7.86;72.02
48244;BME280;34053;51.088;6.572;2023-03-14T13:34:58;99554.63;;;7.60;71.06
48244;BME280;34053;51.088;6.572;2023-03-14T13:37:29;99559.88;;;7.85;71.23
48244;BME280;34053;51.088;6.572;2023-03-14T13:39:59;99573.78;;;7.60;70.51
48244;BME280;34053;51.088;6.572;2023-03-14T13:42:30;99574.00;;;7.52;70.07
48244;BME280;34053;51.088;6.572;2023-03-14T13:45:00;99567.59;;;7.63;70.94
48244;BME280;34053;51.088;6.572;2023-03-14T13:47:31;99570.50;;;7.80;71.22
48244;BME280;34053;51.088;6.572;2023-03-14T13:50:01;99576.63;;;7.79;70.32
48244;BME280;34053;51.088;6.572;2023-03-14T13:52:36;99580.22;;;7.75;68.88
48244;BME280;34053;51.088;6.572;2023-03-14T13:55:16;99596.09;;;7.69;68.26
48244;BME280;34053;51.088;6.572;2023-03-14T13:57:52;99594.88;;;7.79;67.49
48244;BME280;34053;51.088;6.572;2023-03-14T14:00:27;99609.88;;;7.46;67.10
48244;BME280;34053;51.088;6.572;2023-03-14T14:02:59;99607.63;;;7.35;68.38
48244;BME280;34053;51.088;6.572;2023-03-14T14:05:30;99615.41;;;7.63;67.81
48244;BME280;34053;51.088;6.572;2023-03-14T14:08:03;99611.97;;;7.63;68.21
48244;BME280;34053;51.088;6.572;2023-03-14T14:10:36;99621.97;;;7.48;69.11
48244;BME280;34053;51.088;6.572;2023-03-14T14:13:12;99637.06;;;7.67;69.17
48244;BME280;34053;51.088;6.572;2023-03-14T14:15:48;99639.53;;;7.71;67.82
48244;BME280;34053;51.088;6.572;2023-03-14T14:18:24;99649.31;;;7.92;68.27
48244;BME280;34053;51.088;6.572;2023-03-14T14:20:57;99656.25;;;7.93;67.34
48244;BME280;34053;51.088;6.572;2023-03-14T14:23:28;99661.69;;;7.86;67.28
48244;BME280;34053;51.088;6.572;2023-03-14T14:26:00;99677.06;;;7.96;67.32
48244;BME280;34053;51.088;6.572;2023-03-14T14:28:33;99677.53;;;8.07;67.67
48244;BME280;34053;51.088;6.572;2023-03-14T14:31:15;99688.50;;;7.92;68.22